sensor_id;sensor_type;location;lat;lon;timestamp;P1;durP1;ratioP1;P2;durP2;ratioP2
68256;SDS011;55069;51.568;4.656;2023-08-06T00:01:38;4.73;;;2.90;;
68256;SDS011;55069;51.568;4.656;2023-08-06T00:04:03;4.40;;;2.75;;
68256;SDS011;55069;51.568;4.656;2023-08-06T00:06:29;4.03;;;3.07;;
68256;SDS011;55069;51.568;4.656;2023-08-06T00:08:54;6.43;;;3.13;;
68256;SDS011;55069;51.568;4.656;2023-08-06T00:11:20;3.70;;;2.80;;
68256;SDS011;55069;51.568;4.656;2023-08-06T00:13:46;5.32;;;2.90;;
68256;SDS011;55069;51.568;4.656;2023-08-06T00:16:11;4.77;;;2.83;;
68256;SDS011;55069;51.568;4.656;2023-08-06T00:18:38;4.63;;;2.83;;
68256;SDS011;55069;51.568;4.656;2023-08-06T00:21:04;4.57;;;3.60;;
68256;SDS011;55069;51.568;4.656;2023-08-06T00:23:29;5.10;;;3.20;;
68256;SDS011;55069;51.568;4.656;2023-08-06T00:25:55;5.87;;;3.47;;
68256;SDS011;55069;51.568;4.656;2023-08-06T00:28:20;6.45;;;3.47;;
68256;SDS011;55069;51.568;4.656;2023-08-06T00:30:46;6.97;;;3.55;;
68256;SDS011;55069;51.568;4.656;2023-08-06T00:33:11;5.03;;;3.60;;
68256;SDS011;55069;51.568;4.656;2023-08-06T00:35:37;5.90;;;3.60;;
68256;SDS011;55069;51.568;4.656;2023-08-06T00:38:02;5.75;;;3.65;;
68256;SDS011;55069;51.568;4.656;2023-08-06T00:40:28;8.67;;;3.50;;
68256;SDS011;55069;51.568;4.656;2023-08-06T00:42:55;5.53;;;3.83;;
68256;SDS011;55069;51.568;4.656;2023-08-06T00:45:21;7.70;;;3.70;;
68256;SDS011;55069;51.568;4.656;2023-08-06T00:47:47;5.75;;;3.50;;
68256;SDS011;55069;51.568;4.656;2023-08-06T00:50:13;7.05;;;3.58;;
68256;SDS011;55069;51.568;4.656;2023-08-06T00:52:39;8.33;;;3.70;;
68256;SDS011;55069;51.568;4.656;2023-08-06T00:55:05;6.22;;;3.60;;
68256;SDS011;55069;51.568;4.656;2023-08-06T00:57:31;5.38;;;3.35;;
68256;SDS011;55069;51.568;4.656;2023-08-06T00:59:57;4.97;;;3.07;;
68256;SDS011;55069;51.568;4.656;2023-08-06T01:02:23;6.45;;;3.97;;
68256;SDS011;55069;51.568;4.656;2023-08-06T01:04:49;4.03;;;3.40;;
68256;SDS011;55069;51.568;4.656;2023-08-06T01:15:32;4.18;;;3.33;;
68256;SDS011;55069;51.568;4.656;2023-08-06T01:18:03;5.55;;;3.15;;
68256;SDS011;55069;51.568;4.656;2023-08-06T01:20:30;5.20;;;3.35;;
68256;SDS011;55069;51.568;4.656;2023-08-06T01:22:56;5.35;;;3.42;;
68256;SDS011;55069;51.568;4.656;2023-08-06T01:25:22;6.57;;;3.83;;
68256;SDS011;55069;51.568;4.656;2023-08-06T01:28:04;7.38;;;3.97;;
68256;SDS011;55069;51.568;4.656;2023-08-06T01:30:35;5.88;;;3.67;;
68256;SDS011;55069;51.568;4.656;2023-08-06T01:33:06;6.70;;;3.63;;
68256;SDS011;55069;51.568;4.656;2023-08-06T01:35:35;6.60;;;3.38;;
68256;SDS011;55069;51.568;4.656;2023-08-06T01:38:02;5.93;;;3.60;;
68256;SDS011;55069;51.568;4.656;2023-08-06T01:40:29;5.72;;;3.42;;
68256;SDS011;55069;51.568;4.656;2023-08-06T01:42:56;6.30;;;3.75;;
68256;SDS011;55069;51.568;4.656;2023-08-06T01:45:21;5.13;;;3.90;;
68256;SDS011;55069;51.568;4.656;2023-08-06T01:47:48;4.93;;;3.80;;
68256;SDS011;55069;51.568;4.656;2023-08-06T01:50:14;4.57;;;3.80;;
68256;SDS011;55069;51.568;4.656;2023-08-06T01:52:39;8.88;;;4.53;;
68256;SDS011;55069;51.568;4.656;2023-08-06T01:55:05;7.30;;;3.73;;
68256;SDS011;55069;51.568;4.656;2023-08-06T01:57:31;6.33;;;3.80;;
68256;SDS011;55069;51.568;4.656;2023-08-06T01:59:57;7.43;;;4.90;;
68256;SDS011;55069;51.568;4.656;2023-08-06T02:02:23;8.18;;;4.70;;
68256;SDS011;55069;51.568;4.656;2023-08-06T02:04:49;6.93;;;4.60;;
68256;SDS011;55069;51.568;4.656;2023-08-06T02:07:14;8.50;;;4.45;;
68256;SDS011;55069;51.568;4.656;2023-08-06T02:09:40;6.53;;;4.25;;
68256;SDS011;55069;51.568;4.656;2023-08-06T02:12:05;6.17;;;4.73;;
68256;SDS011;55069;51.568;4.656;2023-08-06T02:14:31;8.55;;;5.20;;
68256;SDS011;55069;51.568;4.656;2023-08-06T02:16:57;6.37;;;5.03;;
68256;SDS011;55069;51.568;4.656;2023-08-06T02:19:24;9.00;;;5.30;;
68256;SDS011;55069;51.568;4.656;2023-08-06T02:21:50;5.63;;;4.30;;
68256;SDS011;55069;51.568;4.656;2023-08-06T02:24:15;8.82;;;4.88;;
68256;SDS011;55069;51.568;4.656;2023-08-06T02:26:41;10.93;;;5.87;;
68256;SDS011;55069;51.568;4.656;2023-08-06T02:29:06;7.10;;;4.97;;
68256;SDS011;55069;51.568;4.656;2023-08-06T02:31:32;8.07;;;4.93;;
68256;SDS011;55069;51.568;4.656;2023-08-06T02:33:57;8.77;;;5.20;;
68256;SDS011;55069;51.568;4.656;2023-08-06T02:36:23;7.97;;;5.15;;
68256;SDS011;55069;51.568;4.656;2023-08-06T02:38:49;9.50;;;5.30;;
68256;SDS011;55069;51.568;4.656;2023-08-06T02:41:15;13.07;;;5.22;;
68256;SDS011;55069;51.568;4.656;2023-08-06T02:43:40;7.73;;;5.40;;
68256;SDS011;55069;51.568;4.656;2023-08-06T02:46:06;6.95;;;5.38;;
68256;SDS011;55069;51.568;4.656;2023-08-06T02:48:32;7.88;;;5.68;;
68256;SDS011;55069;51.568;4.656;2023-08-06T02:50:59;10.53;;;5.80;;
68256;SDS011;55069;51.568;4.656;2023-08-06T02:53:25;9.38;;;5.70;;
68256;SDS011;55069;51.568;4.656;2023-08-06T02:55:51;10.70;;;6.50;;
68256;SDS011;55069;51.568;4.656;2023-08-06T02:58:21;14.35;;;5.65;;
68256;SDS011;55069;51.568;4.656;2023-08-06T03:01:14;9.97;;;5.93;;
68256;SDS011;55069;51.568;4.656;2023-08-06T03:03:48;8.00;;;5.13;;
68256;SDS011;55069;51.568;4.656;2023-08-06T03:06:20;11.32;;;5.88;;
68256;SDS011;55069;51.568;4.656;2023-08-06T03:08:49;8.82;;;5.68;;
68256;SDS011;55069;51.568;4.656;2023-08-06T03:11:15;12.43;;;5.30;;
68256;SDS011;55069;51.568;4.656;2023-08-06T03:13:40;13.05;;;6.20;;
68256;SDS011;55069;51.568;4.656;2023-08-06T03:16:07;9.80;;;5.97;;
68256;SDS011;55069;51.568;4.656;2023-08-06T03:18:32;11.10;;;5.65;;
68256;SDS011;55069;51.568;4.656;2023-08-06T03:21:01;10.63;;;5.82;;
68256;SDS011;55069;51.568;4.656;2023-08-06T03:23:29;11.35;;;6.47;;
68256;SDS011;55069;51.568;4.656;2023-08-06T03:25:55;11.20;;;5.87;;
68256;SDS011;55069;51.568;4.656;2023-08-06T03:28:20;12.38;;;6.72;;
68256;SDS011;55069;51.568;4.656;2023-08-06T03:30:47;13.00;;;6.93;;
68256;SDS011;55069;51.568;4.656;2023-08-06T03:33:13;8.73;;;6.28;;
68256;SDS011;55069;51.568;4.656;2023-08-06T03:35:39;11.02;;;7.18;;
68256;SDS011;55069;51.568;4.656;2023-08-06T03:38:06;12.63;;;6.70;;
68256;SDS011;55069;51.568;4.656;2023-08-06T03:40:31;10.43;;;6.40;;
68256;SDS011;55069;51.568;4.656;2023-08-06T03:42:59;10.52;;;6.40;;
68256;SDS011;55069;51.568;4.656;2023-08-06T03:45:25;13.07;;;6.07;;
68256;SDS011;55069;51.568;4.656;2023-08-06T03:47:51;11.87;;;6.50;;
68256;SDS011;55069;51.568;4.656;2023-08-06T03:50:17;7.88;;;5.70;;
68256;SDS011;55069;51.568;4.656;2023-08-06T03:52:43;10.05;;;6.40;;
68256;SDS011;55069;51.568;4.656;2023-08-06T03:55:09;12.00;;;6.63;;
68256;SDS011;55069;51.568;4.656;2023-08-06T03:57:36;10.43;;;6.55;;
68256;SDS011;55069;51.568;4.656;2023-08-06T04:00:02;10.87;;;7.67;;
68256;SDS011;55069;51.568;4.656;2023-08-06T04:02:40;9.07;;;6.75;;
68256;SDS011;55069;51.568;4.656;2023-08-06T04:05:05;31.92;;;8.00;;
68256;SDS011;55069;51.568;4.656;2023-08-06T04:07:31;13.67;;;7.73;;
68256;SDS011;55069;51.568;4.656;2023-08-06T04:09:58;11.63;;;7.18;;
68256;SDS011;55069;51.568;4.656;2023-08-06T04:12:25;10.50;;;7.10;;
68256;SDS011;55069;51.568;4.656;2023-08-06T04:14:50;13.00;;;7.45;;
68256;SDS011;55069;51.568;4.656;2023-08-06T04:17:17;17.55;;;7.78;;
68256;SDS011;55069;51.568;4.656;2023-08-06T04:19:47;12.20;;;7.93;;
68256;SDS011;55069;51.568;4.656;2023-08-06T04:22:14;9.60;;;5.97;;
68256;SDS011;55069;51.568;4.656;2023-08-06T04:24:39;11.23;;;6.47;;
68256;SDS011;55069;51.568;4.656;2023-08-06T04:27:05;8.00;;;4.67;;
68256;SDS011;55069;51.568;4.656;2023-08-06T04:29:31;10.15;;;3.10;;
68256;SDS011;55069;51.568;4.656;2023-08-06T04:31:56;6.43;;;2.27;;
68256;SDS011;55069;51.568;4.656;2023-08-06T04:34:22;5.50;;;1.50;;
68256;SDS011;55069;51.568;4.656;2023-08-06T04:36:48;3.67;;;1.10;;
68256;SDS011;55069;51.568;4.656;2023-08-06T04:39:14;5.15;;;1.35;;
68256;SDS011;55069;51.568;4.656;2023-08-06T04:41:40;1.80;;;1.10;;
68256;SDS011;55069;51.568;4.656;2023-08-06T04:44:05;2.15;;;1.30;;
68256;SDS011;55069;51.568;4.656;2023-08-06T04:46:31;6.85;;;1.67;;
68256;SDS011;55069;51.568;4.656;2023-08-06T04:48:56;3.07;;;2.10;;
68256;SDS011;55069;51.568;4.656;2023-08-06T04:51:22;3.87;;;2.43;;
68256;SDS011;55069;51.568;4.656;2023-08-06T04:53:47;9.60;;;2.50;;
68256;SDS011;55069;51.568;4.656;2023-08-06T04:56:13;6.63;;;2.87;;
68256;SDS011;55069;51.568;4.656;2023-08-06T04:58:38;6.53;;;3.23;;
68256;SDS011;55069;51.568;4.656;2023-08-06T05:01:04;4.83;;;3.30;;
68256;SDS011;55069;51.568;4.656;2023-08-06T05:03:29;7.85;;;3.78;;
68256;SDS011;55069;51.568;4.656;2023-08-06T05:05:55;7.10;;;4.13;;
68256;SDS011;55069;51.568;4.656;2023-08-06T05:08:20;6.87;;;3.90;;
68256;SDS011;55069;51.568;4.656;2023-08-06T05:10:46;8.23;;;4.13;;
68256;SDS011;55069;51.568;4.656;2023-08-06T05:13:11;7.30;;;4.00;;
68256;SDS011;55069;51.568;4.656;2023-08-06T05:15:37;9.40;;;3.90;;
68256;SDS011;55069;51.568;4.656;2023-08-06T05:18:04;10.07;;;4.40;;
68256;SDS011;55069;51.568;4.656;2023-08-06T05:20:30;8.65;;;4.53;;
68256;SDS011;55069;51.568;4.656;2023-08-06T05:22:56;7.00;;;3.80;;
68256;SDS011;55069;51.568;4.656;2023-08-06T05:25:21;9.40;;;4.03;;
68256;SDS011;55069;51.568;4.656;2023-08-06T05:27:47;7.50;;;4.67;;
68256;SDS011;55069;51.568;4.656;2023-08-06T05:30:12;7.75;;;4.50;;
68256;SDS011;55069;51.568;4.656;2023-08-06T05:32:38;12.40;;;4.53;;
68256;SDS011;55069;51.568;4.656;2023-08-06T05:35:03;9.23;;;5.00;;
68256;SDS011;55069;51.568;4.656;2023-08-06T05:37:29;8.15;;;4.55;;
68256;SDS011;55069;51.568;4.656;2023-08-06T05:39:55;11.40;;;5.00;;
68256;SDS011;55069;51.568;4.656;2023-08-06T05:42:20;12.75;;;5.55;;
68256;SDS011;55069;51.568;4.656;2023-08-06T05:44:46;9.45;;;5.82;;
68256;SDS011;55069;51.568;4.656;2023-08-06T05:47:11;12.03;;;6.27;;
68256;SDS011;55069;51.568;4.656;2023-08-06T05:49:37;12.30;;;6.20;;
68256;SDS011;55069;51.568;4.656;2023-08-06T05:52:02;14.43;;;6.25;;
68256;SDS011;55069;51.568;4.656;2023-08-06T05:54:31;13.07;;;6.27;;
68256;SDS011;55069;51.568;4.656;2023-08-06T05:56:57;13.13;;;6.15;;
68256;SDS011;55069;51.568;4.656;2023-08-06T05:59:22;13.40;;;5.73;;
68256;SDS011;55069;51.568;4.656;2023-08-06T06:01:48;15.95;;;6.55;;
68256;SDS011;55069;51.568;4.656;2023-08-06T06:04:13;13.67;;;6.37;;
68256;SDS011;55069;51.568;4.656;2023-08-06T06:06:39;16.17;;;7.00;;
68256;SDS011;55069;51.568;4.656;2023-08-06T06:09:06;14.98;;;6.47;;
68256;SDS011;55069;51.568;4.656;2023-08-06T06:11:32;15.25;;;6.57;;
68256;SDS011;55069;51.568;4.656;2023-08-06T06:13:57;16.63;;;5.95;;
68256;SDS011;55069;51.568;4.656;2023-08-06T06:16:23;14.43;;;5.90;;
68256;SDS011;55069;51.568;4.656;2023-08-06T06:18:48;14.77;;;5.57;;
68256;SDS011;55069;51.568;4.656;2023-08-06T06:21:14;15.45;;;4.75;;
68256;SDS011;55069;51.568;4.656;2023-08-06T06:23:40;13.37;;;4.47;;
68256;SDS011;55069;51.568;4.656;2023-08-06T06:26:05;12.77;;;3.60;;
68256;SDS011;55069;51.568;4.656;2023-08-06T06:28:30;9.77;;;3.40;;
68256;SDS011;55069;51.568;4.656;2023-08-06T06:31:00;15.13;;;3.20;;
68256;SDS011;55069;51.568;4.656;2023-08-06T06:33:26;8.05;;;2.90;;
68256;SDS011;55069;51.568;4.656;2023-08-06T06:35:51;10.43;;;2.83;;
68256;SDS011;55069;51.568;4.656;2023-08-06T06:38:17;10.77;;;2.70;;
68256;SDS011;55069;51.568;4.656;2023-08-06T06:40:42;6.33;;;2.40;;
68256;SDS011;55069;51.568;4.656;2023-08-06T06:43:08;8.40;;;2.30;;
68256;SDS011;55069;51.568;4.656;2023-08-06T06:45:33;7.87;;;1.90;;
68256;SDS011;55069;51.568;4.656;2023-08-06T06:47:59;8.00;;;2.00;;
68256;SDS011;55069;51.568;4.656;2023-08-06T06:50:24;7.63;;;2.20;;
68256;SDS011;55069;51.568;4.656;2023-08-06T06:52:51;6.32;;;2.17;;
68256;SDS011;55069;51.568;4.656;2023-08-06T06:55:17;6.40;;;2.03;;
68256;SDS011;55069;51.568;4.656;2023-08-06T06:57:42;10.20;;;2.20;;
68256;SDS011;55069;51.568;4.656;2023-08-06T07:00:08;6.17;;;2.03;;
68256;SDS011;55069;51.568;4.656;2023-08-06T07:02:33;7.50;;;2.28;;
68256;SDS011;55069;51.568;4.656;2023-08-06T07:04:59;6.50;;;2.37;;
68256;SDS011;55069;51.568;4.656;2023-08-06T07:07:25;10.30;;;2.78;;
68256;SDS011;55069;51.568;4.656;2023-08-06T07:09:50;9.10;;;2.63;;
68256;SDS011;55069;51.568;4.656;2023-08-06T07:12:16;7.20;;;2.27;;
68256;SDS011;55069;51.568;4.656;2023-08-06T07:14:41;14.13;;;2.80;;
68256;SDS011;55069;51.568;4.656;2023-08-06T07:17:06;8.98;;;2.75;;
68256;SDS011;55069;51.568;4.656;2023-08-06T07:19:32;9.20;;;2.88;;
68256;SDS011;55069;51.568;4.656;2023-08-06T07:21:57;12.97;;;3.00;;
68256;SDS011;55069;51.568;4.656;2023-08-06T07:24:23;10.20;;;3.00;;
68256;SDS011;55069;51.568;4.656;2023-08-06T07:26:48;15.80;;;3.30;;
68256;SDS011;55069;51.568;4.656;2023-08-06T07:29:14;7.85;;;2.45;;
68256;SDS011;55069;51.568;4.656;2023-08-06T07:31:45;6.72;;;2.20;;
68256;SDS011;55069;51.568;4.656;2023-08-06T07:34:10;14.17;;;2.93;;
68256;SDS011;55069;51.568;4.656;2023-08-06T07:36:36;12.07;;;2.00;;
68256;SDS011;55069;51.568;4.656;2023-08-06T07:39:02;8.25;;;2.00;;
68256;SDS011;55069;51.568;4.656;2023-08-06T07:41:29;7.80;;;2.60;;
68256;SDS011;55069;51.568;4.656;2023-08-06T07:43:55;8.00;;;1.93;;
68256;SDS011;55069;51.568;4.656;2023-08-06T07:46:25;11.07;;;2.33;;
68256;SDS011;55069;51.568;4.656;2023-08-06T07:48:51;8.10;;;2.15;;
68256;SDS011;55069;51.568;4.656;2023-08-06T07:51:16;13.63;;;2.47;;
68256;SDS011;55069;51.568;4.656;2023-08-06T07:53:42;4.57;;;1.47;;
68256;SDS011;55069;51.568;4.656;2023-08-06T07:56:07;8.17;;;1.53;;
68256;SDS011;55069;51.568;4.656;2023-08-06T07:58:33;6.85;;;1.52;;
68256;SDS011;55069;51.568;4.656;2023-08-06T08:00:58;9.40;;;1.17;;
68256;SDS011;55069;51.568;4.656;2023-08-06T08:03:24;8.07;;;1.30;;
68256;SDS011;55069;51.568;4.656;2023-08-06T08:05:50;9.13;;;1.10;;
68256;SDS011;55069;51.568;4.656;2023-08-06T08:08:22;9.10;;;1.33;;
68256;SDS011;55069;51.568;4.656;2023-08-06T08:10:48;11.10;;;1.20;;
68256;SDS011;55069;51.568;4.656;2023-08-06T08:13:13;10.75;;;1.30;;
68256;SDS011;55069;51.568;4.656;2023-08-06T08:15:39;10.07;;;1.15;;
68256;SDS011;55069;51.568;4.656;2023-08-06T08:18:04;9.63;;;1.47;;
68256;SDS011;55069;51.568;4.656;2023-08-06T08:20:30;8.27;;;1.00;;
68256;SDS011;55069;51.568;4.656;2023-08-06T08:23:00;7.00;;;1.20;;
68256;SDS011;55069;51.568;4.656;2023-08-06T08:25:26;9.77;;;1.30;;
68256;SDS011;55069;51.568;4.656;2023-08-06T08:27:52;8.47;;;1.10;;
68256;SDS011;55069;51.568;4.656;2023-08-06T08:30:18;10.25;;;1.42;;
68256;SDS011;55069;51.568;4.656;2023-08-06T08:32:44;11.13;;;1.17;;
68256;SDS011;55069;51.568;4.656;2023-08-06T08:35:09;14.43;;;1.35;;
68256;SDS011;55069;51.568;4.656;2023-08-06T08:37:37;7.60;;;1.20;;
68256;SDS011;55069;51.568;4.656;2023-08-06T08:40:03;13.32;;;1.90;;
68256;SDS011;55069;51.568;4.656;2023-08-06T08:42:32;11.68;;;1.85;;
68256;SDS011;55069;51.568;4.656;2023-08-06T08:44:57;11.77;;;1.80;;
68256;SDS011;55069;51.568;4.656;2023-08-06T08:47:23;11.32;;;1.17;;
68256;SDS011;55069;51.568;4.656;2023-08-06T08:49:49;11.97;;;1.20;;
68256;SDS011;55069;51.568;4.656;2023-08-06T08:52:19;7.82;;;0.98;;
68256;SDS011;55069;51.568;4.656;2023-08-06T08:54:48;8.80;;;1.13;;
68256;SDS011;55069;51.568;4.656;2023-08-06T08:57:18;8.52;;;1.25;;
68256;SDS011;55069;51.568;4.656;2023-08-06T08:59:44;9.95;;;0.88;;
68256;SDS011;55069;51.568;4.656;2023-08-06T09:02:10;7.47;;;1.10;;
68256;SDS011;55069;51.568;4.656;2023-08-06T09:04:37;10.35;;;1.10;;
68256;SDS011;55069;51.568;4.656;2023-08-06T09:07:04;8.37;;;0.90;;
68256;SDS011;55069;51.568;4.656;2023-08-06T09:09:33;6.38;;;1.08;;
68256;SDS011;55069;51.568;4.656;2023-08-06T09:12:05;7.95;;;1.00;;
68256;SDS011;55069;51.568;4.656;2023-08-06T09:14:35;9.50;;;1.20;;
68256;SDS011;55069;51.568;4.656;2023-08-06T09:17:00;10.87;;;1.40;;
68256;SDS011;55069;51.568;4.656;2023-08-06T09:19:26;7.40;;;1.00;;
68256;SDS011;55069;51.568;4.656;2023-08-06T09:21:52;10.75;;;1.45;;
68256;SDS011;55069;51.568;4.656;2023-08-06T09:24:20;8.57;;;1.00;;
68256;SDS011;55069;51.568;4.656;2023-08-06T09:26:45;7.20;;;1.20;;
68256;SDS011;55069;51.568;4.656;2023-08-06T09:29:11;8.23;;;0.97;;
68256;SDS011;55069;51.568;4.656;2023-08-06T09:34:18;5.32;;;0.70;;
68256;SDS011;55069;51.568;4.656;2023-08-06T09:36:48;12.50;;;1.43;;
68256;SDS011;55069;51.568;4.656;2023-08-06T09:39:16;6.82;;;0.80;;
68256;SDS011;55069;51.568;4.656;2023-08-06T09:41:43;8.27;;;1.13;;
68256;SDS011;55069;51.568;4.656;2023-08-06T09:44:19;10.20;;;1.23;;
68256;SDS011;55069;51.568;4.656;2023-08-06T09:46:49;9.32;;;1.00;;
68256;SDS011;55069;51.568;4.656;2023-08-06T09:49:17;6.30;;;1.00;;
68256;SDS011;55069;51.568;4.656;2023-08-06T09:51:44;5.45;;;0.70;;
68256;SDS011;55069;51.568;4.656;2023-08-06T09:54:12;6.10;;;0.80;;
68256;SDS011;55069;51.568;4.656;2023-08-06T09:56:38;5.85;;;1.08;;
68256;SDS011;55069;51.568;4.656;2023-08-06T09:59:04;5.47;;;1.23;;
68256;SDS011;55069;51.568;4.656;2023-08-06T10:01:34;5.50;;;1.33;;
68256;SDS011;55069;51.568;4.656;2023-08-06T10:04:00;4.20;;;0.90;;
68256;SDS011;55069;51.568;4.656;2023-08-06T10:06:28;5.05;;;0.90;;
68256;SDS011;55069;51.568;4.656;2023-08-06T10:08:54;3.85;;;0.98;;
68256;SDS011;55069;51.568;4.656;2023-08-06T10:11:24;5.23;;;0.83;;
68256;SDS011;55069;51.568;4.656;2023-08-06T10:13:54;4.18;;;0.80;;
68256;SDS011;55069;51.568;4.656;2023-08-06T10:16:23;5.15;;;1.20;;
68256;SDS011;55069;51.568;4.656;2023-08-06T10:18:49;2.73;;;0.70;;
68256;SDS011;55069;51.568;4.656;2023-08-06T10:21:16;4.13;;;0.70;;
68256;SDS011;55069;51.568;4.656;2023-08-06T10:23:41;4.03;;;0.90;;
68256;SDS011;55069;51.568;4.656;2023-08-06T10:26:07;5.27;;;0.80;;
68256;SDS011;55069;51.568;4.656;2023-08-06T10:28:33;3.35;;;0.90;;
68256;SDS011;55069;51.568;4.656;2023-08-06T10:31:03;5.60;;;1.00;;
68256;SDS011;55069;51.568;4.656;2023-08-06T10:33:41;4.28;;;1.10;;
68256;SDS011;55069;51.568;4.656;2023-08-06T10:36:08;3.08;;;1.00;;
68256;SDS011;55069;51.568;4.656;2023-08-06T10:38:35;7.45;;;0.90;;
68256;SDS011;55069;51.568;4.656;2023-08-06T10:41:08;2.80;;;0.80;;
68256;SDS011;55069;51.568;4.656;2023-08-06T10:43:53;8.97;;;1.30;;
68256;SDS011;55069;51.568;4.656;2023-08-06T10:46:31;5.25;;;0.93;;
68256;SDS011;55069;51.568;4.656;2023-08-06T10:48:56;2.85;;;0.88;;
68256;SDS011;55069;51.568;4.656;2023-08-06T10:51:22;9.87;;;1.30;;
68256;SDS011;55069;51.568;4.656;2023-08-06T10:53:50;7.00;;;1.87;;
68256;SDS011;55069;51.568;4.656;2023-08-06T10:56:16;6.00;;;0.88;;
68256;SDS011;55069;51.568;4.656;2023-08-06T10:58:42;7.13;;;1.00;;
68256;SDS011;55069;51.568;4.656;2023-08-06T11:01:09;5.68;;;0.80;;
68256;SDS011;55069;51.568;4.656;2023-08-06T11:03:35;8.57;;;1.00;;
68256;SDS011;55069;51.568;4.656;2023-08-06T11:06:02;4.10;;;0.55;;
68256;SDS011;55069;51.568;4.656;2023-08-06T11:08:28;2.03;;;0.57;;
68256;SDS011;55069;51.568;4.656;2023-08-06T11:11:13;4.40;;;0.60;;
68256;SDS011;55069;51.568;4.656;2023-08-06T11:13:43;3.10;;;0.68;;
68256;SDS011;55069;51.568;4.656;2023-08-06T11:16:12;3.60;;;0.73;;
68256;SDS011;55069;51.568;4.656;2023-08-06T11:18:39;4.18;;;0.90;;
68256;SDS011;55069;51.568;4.656;2023-08-06T11:21:05;4.88;;;1.20;;
68256;SDS011;55069;51.568;4.656;2023-08-06T11:23:31;5.07;;;0.73;;
68256;SDS011;55069;51.568;4.656;2023-08-06T11:25:57;2.70;;;0.68;;
68256;SDS011;55069;51.568;4.656;2023-08-06T11:28:23;4.70;;;1.08;;
68256;SDS011;55069;51.568;4.656;2023-08-06T11:30:49;5.03;;;0.80;;
68256;SDS011;55069;51.568;4.656;2023-08-06T11:33:25;8.68;;;1.02;;
68256;SDS011;55069;51.568;4.656;2023-08-06T11:35:51;5.20;;;0.65;;
68256;SDS011;55069;51.568;4.656;2023-08-06T11:38:17;11.20;;;1.25;;
68256;SDS011;55069;51.568;4.656;2023-08-06T11:40:44;8.50;;;0.88;;
68256;SDS011;55069;51.568;4.656;2023-08-06T11:43:10;8.90;;;1.10;;
68256;SDS011;55069;51.568;4.656;2023-08-06T11:45:37;8.13;;;1.20;;
68256;SDS011;55069;51.568;4.656;2023-08-06T11:48:02;9.87;;;1.50;;
68256;SDS011;55069;51.568;4.656;2023-08-06T11:50:28;8.40;;;0.80;;
68256;SDS011;55069;51.568;4.656;2023-08-06T11:52:59;8.25;;;1.10;;
68256;SDS011;55069;51.568;4.656;2023-08-06T11:55:26;5.63;;;0.97;;
68256;SDS011;55069;51.568;4.656;2023-08-06T11:57:53;5.72;;;1.02;;
68256;SDS011;55069;51.568;4.656;2023-08-06T12:00:20;4.38;;;1.02;;
68256;SDS011;55069;51.568;4.656;2023-08-06T12:02:48;5.38;;;0.70;;
68256;SDS011;55069;51.568;4.656;2023-08-06T12:05:17;4.40;;;0.60;;
68256;SDS011;55069;51.568;4.656;2023-08-06T12:07:49;3.47;;;0.90;;
68256;SDS011;55069;51.568;4.656;2023-08-06T12:10:16;5.43;;;0.90;;
68256;SDS011;55069;51.568;4.656;2023-08-06T12:12:42;7.72;;;0.85;;
68256;SDS011;55069;51.568;4.656;2023-08-06T12:15:08;7.57;;;0.90;;
68256;SDS011;55069;51.568;4.656;2023-08-06T12:17:35;7.57;;;0.80;;
68256;SDS011;55069;51.568;4.656;2023-08-06T12:20:01;10.18;;;1.40;;
68256;SDS011;55069;51.568;4.656;2023-08-06T12:22:31;11.20;;;1.23;;
68256;SDS011;55069;51.568;4.656;2023-08-06T12:25:00;11.38;;;1.00;;
68256;SDS011;55069;51.568;4.656;2023-08-06T12:27:27;9.53;;;0.90;;
68256;SDS011;55069;51.568;4.656;2023-08-06T12:29:52;11.75;;;1.35;;
68256;SDS011;55069;51.568;4.656;2023-08-06T12:32:18;6.60;;;1.00;;
68256;SDS011;55069;51.568;4.656;2023-08-06T12:34:44;9.65;;;1.17;;
68256;SDS011;55069;51.568;4.656;2023-08-06T12:37:09;13.27;;;1.90;;
68256;SDS011;55069;51.568;4.656;2023-08-06T12:39:35;7.23;;;1.90;;
68256;SDS011;55069;51.568;4.656;2023-08-06T12:42:03;7.88;;;1.20;;
68256;SDS011;55069;51.568;4.656;2023-08-06T12:44:30;7.90;;;1.58;;
68256;SDS011;55069;51.568;4.656;2023-08-06T12:46:57;5.70;;;1.27;;
68256;SDS011;55069;51.568;4.656;2023-08-06T12:49:23;3.92;;;1.10;;
68256;SDS011;55069;51.568;4.656;2023-08-06T12:51:51;5.27;;;1.00;;
68256;SDS011;55069;51.568;4.656;2023-08-06T12:54:17;6.80;;;1.10;;
68256;SDS011;55069;51.568;4.656;2023-08-06T12:56:44;7.70;;;1.00;;
68256;SDS011;55069;51.568;4.656;2023-08-06T12:59:10;9.52;;;1.40;;
68256;SDS011;55069;51.568;4.656;2023-08-06T13:01:36;7.87;;;1.60;;
68256;SDS011;55069;51.568;4.656;2023-08-06T13:04:02;12.40;;;1.50;;
68256;SDS011;55069;51.568;4.656;2023-08-06T13:06:28;4.82;;;1.27;;
68256;SDS011;55069;51.568;4.656;2023-08-06T13:08:54;10.18;;;1.40;;
68256;SDS011;55069;51.568;4.656;2023-08-06T13:11:19;8.87;;;1.70;;
68256;SDS011;55069;51.568;4.656;2023-08-06T13:13:45;9.97;;;2.10;;
68256;SDS011;55069;51.568;4.656;2023-08-06T13:16:10;14.07;;;5.03;;
68256;SDS011;55069;51.568;4.656;2023-08-06T13:18:37;12.17;;;4.43;;
68256;SDS011;55069;51.568;4.656;2023-08-06T13:21:02;7.43;;;2.10;;
68256;SDS011;55069;51.568;4.656;2023-08-06T13:23:28;12.20;;;1.83;;
68256;SDS011;55069;51.568;4.656;2023-08-06T13:25:53;9.83;;;1.10;;
68256;SDS011;55069;51.568;4.656;2023-08-06T13:28:19;11.23;;;1.80;;
68256;SDS011;55069;51.568;4.656;2023-08-06T13:30:45;5.10;;;1.10;;
68256;SDS011;55069;51.568;4.656;2023-08-06T13:33:11;8.27;;;1.42;;
68256;SDS011;55069;51.568;4.656;2023-08-06T13:35:37;15.23;;;3.30;;
68256;SDS011;55069;51.568;4.656;2023-08-06T13:38:02;6.80;;;1.95;;
68256;SDS011;55069;51.568;4.656;2023-08-06T13:40:28;12.95;;;3.47;;
68256;SDS011;55069;51.568;4.656;2023-08-06T13:42:55;7.95;;;1.70;;
68256;SDS011;55069;51.568;4.656;2023-08-06T13:45:21;13.07;;;2.80;;
68256;SDS011;55069;51.568;4.656;2023-08-06T13:47:46;9.53;;;1.73;;
68256;SDS011;55069;51.568;4.656;2023-08-06T13:50:12;10.88;;;1.52;;
68256;SDS011;55069;51.568;4.656;2023-08-06T13:52:38;5.75;;;1.63;;
68256;SDS011;55069;51.568;4.656;2023-08-06T13:55:04;12.38;;;1.77;;
68256;SDS011;55069;51.568;4.656;2023-08-06T13:57:30;6.77;;;1.20;;
68256;SDS011;55069;51.568;4.656;2023-08-06T13:59:56;9.13;;;1.65;;
68256;SDS011;55069;51.568;4.656;2023-08-06T14:02:22;9.17;;;1.77;;
68256;SDS011;55069;51.568;4.656;2023-08-06T14:04:47;13.05;;;1.90;;
68256;SDS011;55069;51.568;4.656;2023-08-06T14:07:13;10.23;;;2.00;;
68256;SDS011;55069;51.568;4.656;2023-08-06T14:09:38;7.43;;;1.20;;
68256;SDS011;55069;51.568;4.656;2023-08-06T14:12:05;10.85;;;1.33;;
68256;SDS011;55069;51.568;4.656;2023-08-06T14:14:31;5.82;;;1.40;;
68256;SDS011;55069;51.568;4.656;2023-08-06T14:16:57;7.80;;;1.13;;
68256;SDS011;55069;51.568;4.656;2023-08-06T14:19:22;7.00;;;1.02;;
68256;SDS011;55069;51.568;4.656;2023-08-06T14:21:48;10.50;;;1.53;;
68256;SDS011;55069;51.568;4.656;2023-08-06T14:24:14;5.07;;;0.70;;
68256;SDS011;55069;51.568;4.656;2023-08-06T14:26:40;8.10;;;1.13;;
68256;SDS011;55069;51.568;4.656;2023-08-06T14:29:07;5.20;;;0.80;;
68256;SDS011;55069;51.568;4.656;2023-08-06T14:31:32;3.28;;;1.00;;
68256;SDS011;55069;51.568;4.656;2023-08-06T14:33:58;6.97;;;1.27;;
68256;SDS011;55069;51.568;4.656;2023-08-06T14:36:23;6.37;;;1.37;;
68256;SDS011;55069;51.568;4.656;2023-08-06T14:38:51;6.40;;;1.08;;
68256;SDS011;55069;51.568;4.656;2023-08-06T14:41:16;7.55;;;0.75;;
68256;SDS011;55069;51.568;4.656;2023-08-06T14:43:42;7.80;;;1.00;;
68256;SDS011;55069;51.568;4.656;2023-08-06T14:46:07;7.57;;;1.70;;
68256;SDS011;55069;51.568;4.656;2023-08-06T14:48:33;7.43;;;1.60;;
68256;SDS011;55069;51.568;4.656;2023-08-06T14:50:58;6.13;;;0.98;;